Terminal Aerodrome Forecast
Issued by NWS

Home | Current Version | Previous Version | Graphics & Text | Print | Product List | Glossary On
Versions: 1 2 3 4 5 6 7 8 9 10 11 12 13 14 15 16
000
FTUS43 KUNR 152330
TAFGCC
TAF
KGCC 152330Z 1600/1624 32014G24KT 1SM -SN BR OVC006
     FM161700 33015G25KT P6SM -SHRASN OVC015=

USA.gov is the U.S. government's official web portal to all federal, state and local government web resources and services.